Time;durP1;ratioP1;P1;durP2;ratioP2;P2;SDS_P1;SDS_P2;PMS_P1;PMS_P2;Temp;Humidity;BMP_temperature;BMP_pressure;BME280_temperature;BME280_humidity;BME280_pressure;Samples;Min_cycle;Max_cycle;Signal;HPM_P1;HPM_P2
2021/05/28 00:01:32;;;;;;;3.30;3.00;;;11.60;99.90;;;;;;5024416;28;20866;-72
2021/05/28 00:03:58;;;;;;;4.15;2.60;;;11.60;99.90;;;;;;5010277;28;20198;-70
2021/05/28 00:06:23;;;;;;;2.92;2.38;;;11.60;99.90;;;;;;5027855;28;20655;-72
2021/05/28 00:08:49;;;;;;;4.70;2.50;;;11.50;99.90;;;;;;5026210;28;20655;-70
2021/05/28 00:11:15;;;;;;;4.35;2.65;;;11.60;99.90;;;;;;5022203;28;20212;-70
2021/05/28 00:13:41;;;;;;;3.30;2.70;;;11.50;99.90;;;;;;5026791;28;20181;-69
2021/05/28 00:16:07;;;;;;;4.00;3.05;;;11.50;99.90;;;;;;5012099;28;20200;-70
2021/05/28 00:18:32;;;;;;;3.30;3.00;;;11.50;99.90;;;;;;5024752;28;20652;-72
2021/05/28 00:20:58;;;;;;;2.97;2.70;;;11.40;99.90;;;;;;5024398;28;20219;-72
2021/05/28 00:23:23;;;;;;;2.70;2.42;;;11.40;99.90;;;;;;5023497;28;20270;-72
2021/05/28 00:25:49;;;;;;;3.60;3.30;;;11.40;99.90;;;;;;5020716;28;20208;-71
2021/05/28 00:28:15;;;;;;;3.83;3.38;;;11.40;99.90;;;;;;5018994;28;20264;-72
2021/05/28 00:30:40;;;;;;;3.60;3.30;;;11.40;99.90;;;;;;5025375;28;20655;-71
2021/05/28 00:33:06;;;;;;;4.18;3.50;;;11.40;99.90;;;;;;5029734;28;20216;-71
2021/05/28 00:35:32;;;;;;;4.20;3.70;;;11.30;99.90;;;;;;5024816;28;20268;-71
2021/05/28 00:37:58;;;;;;;6.97;3.90;;;11.30;99.90;;;;;;5027750;28;20199;-71
2021/05/28 00:40:23;;;;;;;4.32;3.75;;;11.30;99.90;;;;;;5024401;28;20338;-71
2021/05/28 00:42:49;;;;;;;4.20;3.90;;;11.20;99.90;;;;;;5007941;28;20216;-72
2021/05/28 00:45:15;;;;;;;5.18;4.78;;;11.20;99.90;;;;;;5028260;28;20176;-72
2021/05/28 00:47:41;;;;;;;5.78;5.25;;;11.20;99.90;;;;;;5024335;28;20187;-71
2021/05/28 00:50:07;;;;;;;5.95;5.45;;;11.20;99.90;;;;;;5011725;28;20611;-71
2021/05/28 00:52:33;;;;;;;6.38;5.75;;;11.10;99.90;;;;;;5027200;28;20679;-72
2021/05/28 00:54:59;;;;;;;7.07;6.38;;;11.10;99.90;;;;;;5023958;28;20184;-72
2021/05/28 00:57:28;;;;;;;7.78;7.07;;;11.10;99.90;;;;;;5024512;28;20180;-72
2021/05/28 00:59:55;;;;;;;7.72;7.07;;;11.10;99.90;;;;;;5022044;28;20211;-72
2021/05/28 01:02:21;;;;;;;8.50;7.72;;;11.10;99.90;;;;;;5022554;28;20707;-70
2021/05/28 01:04:47;;;;;;;9.70;8.60;;;11.10;99.90;;;;;;5010997;28;20180;-69
2021/05/28 01:07:13;;;;;;;9.27;8.45;;;11.10;99.90;;;;;;5024901;28;20192;-71
2021/05/28 01:09:39;;;;;;;9.38;8.63;;;11.10;99.90;;;;;;5027179;28;20274;-70
2021/05/28 01:12:05;;;;;;;10.40;9.05;;;11.10;99.90;;;;;;5023781;28;20204;-72
2021/05/28 01:14:30;;;;;;;9.23;8.43;;;11.10;99.90;;;;;;5025351;28;20238;-72
2021/05/28 01:16:56;;;;;;;10.20;9.30;;;11.10;99.90;;;;;;5026892;28;20459;-71
2021/05/28 01:19:24;;;;;;;12.17;9.33;;;11.10;99.90;;;;;;5029874;28;20212;-69
2021/05/28 01:21:50;;;;;;;11.00;9.40;;;11.10;99.90;;;;;;5021106;28;20207;-70
2021/05/28 01:24:16;;;;;;;11.05;10.05;;;11.10;99.90;;;;;;5024484;28;20205;-72
2021/05/28 01:26:41;;;;;;;12.27;11.05;;;11.10;99.90;;;;;;5025005;28;20181;-72
2021/05/28 01:29:07;;;;;;;11.65;10.65;;;11.10;99.90;;;;;;5026001;28;20184;-72
2021/05/28 01:31:33;;;;;;;12.90;11.55;;;11.00;99.90;;;;;;5023301;28;20286;-72
2021/05/28 01:33:59;;;;;;;12.57;11.48;;;11.00;99.90;;;;;;5026233;28;20284;-71
2021/05/28 01:36:24;;;;;;;13.40;12.23;;;11.00;99.90;;;;;;5027040;28;20188;-72
2021/05/28 01:38:50;;;;;;;12.52;11.32;;;11.00;99.90;;;;;;5032767;28;20192;-71
2021/05/28 01:41:15;;;;;;;14.15;12.57;;;11.00;99.90;;;;;;5024713;28;20207;-70
2021/05/28 01:43:41;;;;;;;12.77;11.57;;;11.00;99.90;;;;;;5029554;28;20184;-69
2021/05/28 01:46:07;;;;;;;12.85;11.52;;;11.00;99.90;;;;;;5025844;28;20196;-71
2021/05/28 01:48:32;;;;;;;11.85;10.85;;;11.00;99.90;;;;;;5029225;28;20176;-72
2021/05/28 01:50:58;;;;;;;12.55;11.45;;;11.00;99.90;;;;;;5028733;28;20185;-71
2021/05/28 01:53:25;;;;;;;12.55;11.45;;;11.00;99.90;;;;;;5026400;28;20618;-70
2021/05/28 01:55:52;;;;;;;12.57;11.48;;;11.10;99.90;;;;;;5028476;28;20209;-71
2021/05/28 01:58:23;;;;;;;11.23;10.10;;;11.10;99.90;;;;;;5026293;28;20696;-72
2021/05/28 02:00:51;;;;;;;11.55;10.35;;;11.10;99.90;;;;;;5030130;28;20210;-70
2021/05/28 02:03:18;;;;;;;11.03;10.03;;;11.00;99.90;;;;;;5025871;28;20176;-72
2021/05/28 02:05:44;;;;;;;11.13;10.02;;;11.00;99.90;;;;;;5028638;28;20283;-69
2021/05/28 02:08:10;;;;;;;9.95;9.05;;;11.00;99.90;;;;;;5028597;28;20180;-71
2021/05/28 02:10:36;;;;;;;12.18;10.13;;;11.00;99.90;;;;;;5027071;28;20275;-71
2021/05/28 02:13:02;;;;;;;10.80;9.70;;;11.00;99.90;;;;;;5028943;28;20295;-72
2021/05/28 02:15:29;;;;;;;10.75;9.65;;;11.00;99.90;;;;;;5028522;28;20187;-70
2021/05/28 02:17:55;;;;;;;11.15;10.05;;;11.00;99.90;;;;;;5025459;28;20265;-71
2021/05/28 02:20:21;;;;;;;10.60;9.70;;;11.00;99.90;;;;;;5024988;28;20576;-70
2021/05/28 02:22:47;;;;;;;10.73;9.73;;;11.00;99.90;;;;;;5026084;28;20218;-70
2021/05/28 02:25:13;;;;;;;10.38;9.32;;;11.10;99.90;;;;;;5026089;28;20647;-70
2021/05/28 02:27:39;;;;;;;10.20;9.23;;;11.00;99.90;;;;;;5023762;28;20185;-70
2021/05/28 02:30:06;;;;;;;10.20;9.30;;;11.00;99.90;;;;;;5011701;28;20184;-71
2021/05/28 02:32:32;;;;;;;10.68;9.68;;;11.00;99.90;;;;;;5030777;28;20757;-70
2021/05/28 02:34:59;;;;;;;9.57;8.88;;;11.10;99.90;;;;;;5024757;28;20235;-70
2021/05/28 02:37:25;;;;;;;8.90;8.00;;;11.00;99.90;;;;;;5028165;28;20736;-71
2021/05/28 02:39:50;;;;;;;9.27;8.38;;;11.00;99.90;;;;;;5026716;28;20211;-70
2021/05/28 02:42:16;;;;;;;8.95;8.15;;;11.00;99.90;;;;;;5025225;28;20223;-70
2021/05/28 02:44:42;;;;;;;8.95;8.05;;;11.00;99.90;;;;;;5028444;28;20195;-70
2021/05/28 02:47:07;;;;;;;8.55;7.85;;;11.00;99.90;;;;;;5025940;28;20271;-70
2021/05/28 02:49:35;;;;;;;9.30;8.40;;;11.00;99.90;;;;;;5020966;28;20196;-71
2021/05/28 02:52:01;;;;;;;8.75;7.90;;;11.00;99.90;;;;;;5022545;28;20259;-71
2021/05/28 02:54:27;;;;;;;9.77;7.65;;;11.00;99.90;;;;;;5009552;28;20200;-71
2021/05/28 02:56:53;;;;;;;8.02;7.32;;;11.00;99.90;;;;;;5024846;28;20199;-70
2021/05/28 02:59:18;;;;;;;7.65;6.65;;;11.00;99.90;;;;;;5024341;28;20664;-71
2021/05/28 03:01:44;;;;;;;8.15;6.53;;;11.00;99.90;;;;;;5006007;28;20201;-70
2021/05/28 03:04:10;;;;;;;7.38;6.45;;;11.00;99.90;;;;;;5026799;28;20188;-71
2021/05/28 03:06:36;;;;;;;6.88;6.28;;;11.00;99.90;;;;;;5022360;28;20184;-70
2021/05/28 03:09:02;;;;;;;7.82;6.38;;;11.00;99.90;;;;;;5026491;28;20800;-71
2021/05/28 03:11:27;;;;;;;8.45;7.70;;;11.00;99.90;;;;;;5028325;28;20678;-70
2021/05/28 03:13:53;;;;;;;10.15;9.15;;;11.00;99.90;;;;;;5023192;28;20199;-71
2021/05/28 03:16:18;;;;;;;11.15;10.02;;;11.00;99.90;;;;;;5024961;28;20656;-70
2021/05/28 03:23:49;;;;;;;11.15;10.05;;;10.80;99.90;;;;;;4985492;28;1096294;-70
2021/05/28 03:26:15;;;;;;;10.73;9.65;;;10.80;99.90;;;;;;5030595;28;20516;-71
2021/05/28 03:28:41;;;;;;;11.30;9.95;;;10.80;99.90;;;;;;5026794;28;20193;-70
2021/05/28 03:31:06;;;;;;;9.95;8.93;;;10.80;99.90;;;;;;5024932;28;20674;-70
2021/05/28 03:33:32;;;;;;;10.60;9.35;;;10.80;99.90;;;;;;5023415;28;20718;-70
2021/05/28 03:35:58;;;;;;;11.55;9.82;;;10.80;99.90;;;;;;5022838;28;20184;-70
2021/05/28 03:38:24;;;;;;;10.43;9.45;;;10.80;99.90;;;;;;5019889;28;20322;-69
2021/05/28 03:40:49;;;;;;;11.20;10.10;;;10.80;99.90;;;;;;5021119;28;20687;-70
2021/05/28 03:43:15;;;;;;;11.50;10.47;;;10.80;99.90;;;;;;5024101;28;20203;-72
2021/05/28 03:45:40;;;;;;;11.40;10.38;;;10.80;99.90;;;;;;5010579;28;20187;-71
2021/05/28 03:48:07;;;;;;;12.15;10.40;;;10.80;99.90;;;;;;5027366;28;20191;-71
2021/05/28 03:50:32;;;;;;;11.68;10.43;;;10.80;99.90;;;;;;5022228;28;20453;-71
2021/05/28 03:52:58;;;;;;;11.95;10.55;;;10.70;99.90;;;;;;5026347;28;20208;-70
2021/05/28 03:55:24;;;;;;;12.00;10.43;;;10.70;99.90;;;;;;5021724;28;20212;-71
2021/05/28 03:57:49;;;;;;;12.25;9.70;;;10.70;99.90;;;;;;5025344;28;20188;-72
2021/05/28 04:00:16;;;;;;;12.07;10.70;;;10.60;99.90;;;;;;5024137;28;20206;-72
2021/05/28 04:02:41;;;;;;;12.17;10.97;;;10.60;99.90;;;;;;5023263;28;20208;-72
2021/05/28 04:05:09;;;;;;;13.50;12.15;;;10.60;99.90;;;;;;5026361;28;20207;-72
2021/05/28 04:07:34;;;;;;;12.90;11.50;;;10.50;99.90;;;;;;5025483;28;20750;-70
2021/05/28 04:10:00;;;;;;;12.03;10.93;;;10.50;99.90;;;;;;5024646;28;20275;-70
2021/05/28 04:12:25;;;;;;;11.90;10.67;;;10.40;99.90;;;;;;5025177;28;20208;-70
2021/05/28 04:14:51;;;;;;;12.57;11.40;;;10.40;99.90;;;;;;5025859;28;20189;-70
2021/05/28 04:17:17;;;;;;;11.77;10.67;;;10.40;99.90;;;;;;5023458;28;20215;-69
2021/05/28 04:19:42;;;;;;;13.70;12.33;;;10.30;99.90;;;;;;5025617;28;20266;-70
2021/05/28 04:22:08;;;;;;;13.77;12.37;;;10.40;99.90;;;;;;5021026;28;20201;-70
2021/05/28 04:24:33;;;;;;;12.17;11.07;;;10.30;99.90;;;;;;5026862;28;20197;-72
2021/05/28 04:26:59;;;;;;;13.73;12.30;;;10.30;99.90;;;;;;5010434;28;20195;-71
2021/05/28 04:29:25;;;;;;;19.37;12.07;;;10.20;99.90;;;;;;5029159;28;20212;-71
2021/05/28 04:31:50;;;;;;;14.27;12.50;;;10.20;99.90;;;;;;5025158;28;20220;-71
2021/05/28 04:34:16;;;;;;;16.33;12.40;;;10.20;99.90;;;;;;5022308;28;20557;-71
2021/05/28 04:36:42;;;;;;;13.73;12.30;;;10.30;99.90;;;;;;5020867;28;20189;-71
2021/05/28 04:39:07;;;;;;;14.67;12.30;;;10.40;99.90;;;;;;5026999;28;20279;-72
2021/05/28 04:41:33;;;;;;;12.93;11.73;;;10.40;99.90;;;;;;5021431;28;20726;-69
2021/05/28 04:43:59;;;;;;;12.70;11.37;;;10.50;99.90;;;;;;5021341;28;20220;-71
2021/05/28 04:46:24;;;;;;;12.43;11.10;;;10.50;99.90;;;;;;5026285;28;20593;-71
2021/05/28 04:48:50;;;;;;;12.65;11.23;;;10.60;99.90;;;;;;5028940;28;20631;-69
2021/05/28 04:51:16;;;;;;;12.05;11.00;;;10.70;99.90;;;;;;5028762;28;20259;-72
2021/05/28 04:53:43;;;;;;;11.07;9.95;;;10.80;99.90;;;;;;5010856;28;20635;-71
2021/05/28 04:56:08;;;;;;;10.85;9.85;;;10.90;99.90;;;;;;5025888;28;20231;-71
2021/05/28 04:58:34;;;;;;;11.00;9.80;;;10.90;99.90;;;;;;5020735;28;20220;-70
2021/05/28 05:01:00;;;;;;;11.10;10.02;;;11.00;99.90;;;;;;5004572;28;20204;-72
2021/05/28 05:03:25;;;;;;;11.07;9.90;;;11.10;99.90;;;;;;5022222;28;20753;-69
2021/05/28 05:05:51;;;;;;;10.90;9.77;;;11.20;99.90;;;;;;5000322;28;20678;-70
2021/05/28 05:08:16;;;;;;;11.57;9.82;;;11.20;99.90;;;;;;5015087;28;20212;-69
2021/05/28 05:10:42;;;;;;;10.70;9.60;;;11.30;99.90;;;;;;5024158;28;20543;-72
2021/05/28 05:13:12;;;;;;;10.32;9.20;;;11.40;99.90;;;;;;5023736;28;20204;-71
2021/05/28 05:15:38;;;;;;;9.50;8.60;;;11.50;99.90;;;;;;5021255;28;20242;-71
2021/05/28 05:18:05;;;;;;;8.80;7.80;;;11.60;99.90;;;;;;5022617;28;20660;-69
2021/05/28 05:20:31;;;;;;;10.27;8.00;;;11.80;99.90;;;;;;5007646;28;20200;-71
2021/05/28 05:22:57;;;;;;;7.75;5.65;;;12.00;99.90;;;;;;5021881;28;20546;-71
2021/05/28 05:25:22;;;;;;;6.28;5.68;;;12.10;99.90;;;;;;5021423;28;20283;-71
2021/05/28 05:27:48;;;;;;;7.80;6.43;;;12.20;99.90;;;;;;5021827;28;20547;-71
2021/05/28 05:30:14;;;;;;;7.88;5.80;;;12.30;99.90;;;;;;5021114;28;20193;-70
2021/05/28 05:32:39;;;;;;;7.07;5.43;;;12.40;99.90;;;;;;5008665;28;20721;-70
2021/05/28 05:35:06;;;;;;;5.88;5.40;;;12.50;99.90;;;;;;5021532;28;20246;-71
2021/05/28 05:37:31;;;;;;;5.50;5.00;;;12.60;99.90;;;;;;5020421;28;20184;-71
2021/05/28 05:39:57;;;;;;;6.85;5.70;;;12.60;99.90;;;;;;5018266;28;20794;-70
2021/05/28 05:42:23;;;;;;;9.32;6.18;;;12.70;99.90;;;;;;4999137;28;20193;-71
2021/05/28 05:44:48;;;;;;;7.18;5.70;;;12.80;99.90;;;;;;5020933;28;20196;-71
2021/05/28 05:47:14;;;;;;;8.15;5.90;;;12.90;99.90;;;;;;5023998;28;20189;-71
2021/05/28 05:49:40;;;;;;;6.78;5.28;;;13.10;99.90;;;;;;5022824;28;20184;-70
2021/05/28 05:52:05;;;;;;;6.97;5.45;;;13.20;99.90;;;;;;5021192;28;20698;-71
2021/05/28 05:54:32;;;;;;;7.72;5.38;;;13.40;99.90;;;;;;5020625;28;20185;-71
2021/05/28 05:56:58;;;;;;;8.45;5.25;;;13.60;99.90;;;;;;5022438;28;20258;-71
2021/05/28 05:59:24;;;;;;;5.32;4.82;;;13.70;99.90;;;;;;5027509;28;20675;-71
2021/05/28 06:01:50;;;;;;;6.57;5.00;;;13.90;99.90;;;;;;5007448;28;20722;-70
2021/05/28 06:04:16;;;;;;;8.57;4.95;;;14.20;99.90;;;;;;5018870;28;20184;-70
2021/05/28 06:06:42;;;;;;;11.25;4.85;;;14.40;99.90;;;;;;5016480;28;20188;-70
2021/05/28 06:09:08;;;;;;;6.18;4.50;;;14.40;99.90;;;;;;5022179;28;20184;-70
2021/05/28 06:11:34;;;;;;;7.38;4.85;;;14.60;99.90;;;;;;5019358;28;20710;-70
2021/05/28 06:13:59;;;;;;;8.43;5.15;;;14.70;99.90;;;;;;5020166;28;20185;-70
2021/05/28 06:16:25;;;;;;;6.60;4.75;;;14.80;99.90;;;;;;5012073;28;20633;-70
2021/05/28 06:18:51;;;;;;;9.98;4.80;;;15.00;99.90;;;;;;5020849;28;20697;-70
2021/05/28 06:21:16;;;;;;;6.15;4.63;;;15.20;99.90;;;;;;5020729;28;20775;-71
2021/05/28 06:23:42;;;;;;;7.80;4.93;;;15.40;99.90;;;;;;5022676;28;20187;-70
2021/05/28 06:26:07;;;;;;;9.30;5.22;;;16.00;99.90;;;;;;5022134;28;20559;-70
2021/05/28 06:28:33;;;;;;;7.95;4.50;;;16.40;99.90;;;;;;5025402;28;20259;-70
2021/05/28 06:30:58;;;;;;;8.77;5.00;;;16.70;99.90;;;;;;5024667;28;20255;-70
2021/05/28 06:33:24;;;;;;;7.85;5.20;;;16.90;99.90;;;;;;5021481;28;20191;-69
2021/05/28 06:35:50;;;;;;;9.35;4.55;;;17.10;99.90;;;;;;5025648;28;20616;-70
2021/05/28 06:38:16;;;;;;;9.43;5.20;;;17.40;99.90;;;;;;5023822;28;20184;-70
2021/05/28 06:40:41;;;;;;;7.75;4.38;;;17.70;99.90;;;;;;5024628;28;20227;-69
2021/05/28 06:43:07;;;;;;;8.10;4.78;;;18.00;99.90;;;;;;5025376;28;20707;-69
2021/05/28 06:45:35;;;;;;;8.05;4.32;;;17.90;99.90;;;;;;5022181;28;20193;-68
2021/05/28 06:48:01;;;;;;;8.32;5.00;;;17.80;99.90;;;;;;5027633;28;20234;-69
2021/05/28 06:50:30;;;;;;;5.30;4.30;;;17.70;99.90;;;;;;5025892;28;20271;-69
2021/05/28 06:52:57;;;;;;;6.25;4.82;;;17.60;99.90;;;;;;5025356;28;20683;-69
2021/05/28 06:55:23;;;;;;;5.70;4.45;;;17.70;99.90;;;;;;5025901;28;20195;-69
2021/05/28 06:57:49;;;;;;;6.05;5.05;;;17.90;99.90;;;;;;5024442;28;20271;-69
2021/05/28 07:00:15;;;;;;;5.35;4.82;;;18.20;99.90;;;;;;5020991;28;20246;-69
2021/05/28 07:02:40;;;;;;;5.97;4.70;;;18.50;99.90;;;;;;5025584;28;20366;-69
2021/05/28 07:05:07;;;;;;;8.52;4.22;;;18.90;99.90;;;;;;5021159;28;20876;-70
2021/05/28 07:07:32;;;;;;;5.55;4.75;;;19.30;99.90;;;;;;5017812;28;20215;-70
2021/05/28 07:09:59;;;;;;;7.50;4.78;;;19.30;99.50;;;;;;5005943;28;20192;-69
2021/05/28 07:12:25;;;;;;;7.00;4.53;;;19.40;99.80;;;;;;5028346;28;20341;-69
2021/05/28 07:14:50;;;;;;;7.95;4.38;;;19.80;99.70;;;;;;5022797;28;20189;-70
2021/05/28 07:17:16;;;;;;;6.45;5.25;;;20.10;98.80;;;;;;5025860;28;20733;-68
2021/05/28 07:19:42;;;;;;;10.70;5.43;;;20.30;97.40;;;;;;5009390;28;20222;-68
2021/05/28 07:22:08;;;;;;;7.68;5.13;;;20.30;96.70;;;;;;5021235;28;20682;-68
2021/05/28 07:24:33;;;;;;;5.82;5.10;;;19.90;96.00;;;;;;5026208;28;20196;-70
2021/05/28 07:26:59;;;;;;;7.63;6.13;;;19.50;96.60;;;;;;5029197;28;20223;-69
2021/05/28 07:29:25;;;;;;;8.23;5.20;;;19.40;98.00;;;;;;5024281;28;20196;-70
2021/05/28 07:31:51;;;;;;;8.63;5.57;;;19.60;97.70;;;;;;5025419;28;20691;-69
2021/05/28 07:34:16;;;;;;;8.63;5.22;;;19.70;97.10;;;;;;5026649;28;20180;-68
2021/05/28 07:36:42;;;;;;;8.35;5.00;;;19.90;97.20;;;;;;5025623;28;20180;-68
2021/05/28 07:39:08;;;;;;;6.28;4.28;;;20.10;96.70;;;;;;5024309;28;20534;-67
2021/05/28 07:41:36;;;;;;;7.70;4.88;;;20.40;96.30;;;;;;5026188;28;20679;-68
2021/05/28 07:44:02;;;;;;;7.68;4.82;;;20.60;95.60;;;;;;5026900;28;20702;-70
2021/05/28 07:46:28;;;;;;;7.20;4.35;;;20.90;94.40;;;;;;5024596;28;20219;-69
2021/05/28 07:48:53;;;;;;;6.53;4.70;;;21.10;93.60;;;;;;5025136;28;20587;-70
2021/05/28 07:51:19;;;;;;;7.28;4.63;;;21.00;93.10;;;;;;5026872;28;20212;-70
2021/05/28 07:53:45;;;;;;;7.82;4.55;;;21.00;93.50;;;;;;5023361;28;20564;-70
2021/05/28 07:56:10;;;;;;;8.07;5.75;;;21.20;93.10;;;;;;5022295;28;20623;-70
2021/05/28 07:58:36;;;;;;;11.65;4.95;;;21.40;92.90;;;;;;5026322;28;20191;-70
2021/05/28 08:01:02;;;;;;;8.63;5.75;;;21.30;92.30;;;;;;5021309;28;20745;-70
2021/05/28 08:03:28;;;;;;;8.23;5.72;;;21.10;91.70;;;;;;5024290;28;20200;-70
2021/05/28 08:05:54;;;;;;;10.25;6.75;;;21.30;92.30;;;;;;5023319;28;20239;-70
2021/05/28 08:08:22;;;;;;;16.48;11.38;;;21.50;91.70;;;;;;5028706;28;20176;-70
2021/05/28 08:10:48;;;;;;;16.60;10.73;;;21.40;91.10;;;;;;5008345;28;20185;-70
2021/05/28 08:13:14;;;;;;;15.57;12.20;;;21.20;90.60;;;;;;5023480;28;20197;-70
2021/05/28 08:15:41;;;;;;;10.27;8.10;;;20.90;91.40;;;;;;5025659;28;20279;-70
2021/05/28 08:18:06;;;;;;;12.60;8.27;;;20.60;92.20;;;;;;5026444;28;20192;-70
2021/05/28 08:20:32;;;;;;;6.55;5.80;;;20.20;92.20;;;;;;5014616;28;20213;-70
2021/05/28 08:22:59;;;;;;;26.98;17.75;;;19.80;92.10;;;;;;5026303;28;20249;-69
2021/05/28 08:25:26;;;;;;;11.57;8.80;;;19.40;93.70;;;;;;5021045;28;20191;-69
2021/05/28 08:27:52;;;;;;;12.98;8.57;;;19.10;94.30;;;;;;5024809;28;20561;-69
2021/05/28 08:30:18;;;;;;;7.82;5.40;;;19.00;95.20;;;;;;5021940;28;20172;-70
2021/05/28 08:32:43;;;;;;;9.57;7.50;;;18.90;94.50;;;;;;5024752;28;20301;-70
2021/05/28 08:35:10;;;;;;;9.20;7.22;;;18.90;94.80;;;;;;5008351;28;20711;-69
2021/05/28 08:37:35;;;;;;;6.10;5.18;;;19.10;95.30;;;;;;5025931;28;20778;-69
2021/05/28 08:40:02;;;;;;;9.38;5.30;;;19.40;94.60;;;;;;5026008;28;20223;-70
2021/05/28 08:42:30;;;;;;;10.50;7.82;;;19.60;93.50;;;;;;5023475;28;20314;-70
2021/05/28 08:44:56;;;;;;;7.43;5.22;;;19.80;93.80;;;;;;5026537;28;20259;-71
2021/05/28 08:47:23;;;;;;;4.65;3.97;;;19.90;92.70;;;;;;5022597;28;20312;-70
2021/05/28 08:49:50;;;;;;;6.25;4.65;;;19.90;92.00;;;;;;5021097;28;20573;-70
2021/05/28 08:52:16;;;;;;;6.95;5.90;;;19.90;92.50;;;;;;5020380;28;20295;-70
2021/05/28 08:54:42;;;;;;;8.75;5.70;;;20.10;91.40;;;;;;5023593;28;20668;-70
2021/05/28 08:57:09;;;;;;;8.90;4.95;;;20.10;91.20;;;;;;5019177;28;20189;-70
2021/05/28 08:59:35;;;;;;;6.53;3.83;;;20.00;91.30;;;;;;5004527;28;20683;-70
2021/05/28 09:02:00;;;;;;;4.95;3.53;;;20.20;88.90;;;;;;5025454;28;20220;-70
2021/05/28 09:04:26;;;;;;;5.85;3.80;;;20.40;89.10;;;;;;5024161;28;20203;-70
2021/05/28 09:06:51;;;;;;;8.70;3.58;;;20.60;87.70;;;;;;5020687;28;20208;-70
2021/05/28 09:09:19;;;;;;;6.72;3.72;;;20.50;88.50;;;;;;5027226;28;20679;-69
2021/05/28 09:11:56;;;;;;;4.60;4.20;;;20.50;87.30;;;;;;5026336;28;20285;-71
2021/05/28 09:14:48;;;;;;;6.53;4.50;;;20.60;87.00;;;;;;5023811;28;20248;-70
2021/05/28 09:17:13;;;;;;;4.50;2.88;;;20.80;87.90;;;;;;5018416;28;20280;-72
2021/05/28 09:19:49;;;;;;;5.97;3.72;;;20.90;80.50;;;;;;5025219;28;20752;-70
2021/05/28 09:22:15;;;;;;;5.70;3.80;;;21.00;82.20;;;;;;5017989;28;20253;-72
2021/05/28 09:24:43;;;;;;;6.82;3.85;;;20.90;81.20;;;;;;5021344;28;20663;-71
2021/05/28 09:27:31;;;;;;;8.48;4.47;;;20.90;82.20;;;;;;5024110;28;20184;-72
2021/05/28 09:30:13;;;;;;;6.38;4.47;;;20.60;83.20;;;;;;5022670;28;20213;-71
2021/05/28 09:32:44;;;;;;;8.18;5.70;;;20.40;85.30;;;;;;5025593;28;20257;-72
2021/05/28 09:35:15;;;;;;;5.60;3.90;;;20.20;86.40;;;;;;5020153;28;20250;-71
2021/05/28 09:37:52;;;;;;;4.80;3.55;;;20.20;85.20;;;;;;5022256;28;20188;-71
2021/05/28 09:40:23;;;;;;;6.82;4.70;;;20.20;84.20;;;;;;5023715;28;20200;-72
2021/05/28 09:43:01;;;;;;;4.95;3.65;;;20.00;85.60;;;;;;5026075;28;20334;-71
2021/05/28 09:45:34;;;;;;;4.55;4.15;;;20.00;88.30;;;;;;5020425;28;20191;-71
2021/05/28 09:48:22;;;;;;;6.25;4.70;;;20.10;87.10;;;;;;5023225;28;20190;-71
2021/05/28 09:50:59;;;;;;;5.97;4.43;;;20.20;87.20;;;;;;5023009;28;20217;-73
2021/05/28 09:53:32;;;;;;;6.55;4.43;;;20.30;86.40;;;;;;5026930;28;20192;-72
2021/05/28 09:55:59;;;;;;;6.68;4.75;;;20.40;85.90;;;;;;5023000;28;20196;-72
2021/05/28 09:58:25;;;;;;;5.57;3.90;;;20.40;86.10;;;;;;5021619;28;20291;-71
2021/05/28 10:00:51;;;;;;;6.07;3.55;;;20.50;85.10;;;;;;5009685;28;20315;-72
2021/05/28 10:03:20;;;;;;;3.55;3.00;;;20.50;85.30;;;;;;5027618;28;20238;-73
2021/05/28 10:05:48;;;;;;;5.07;3.17;;;20.50;83.20;;;;;;5010293;28;20187;-73
2021/05/28 10:08:16;;;;;;;7.85;3.95;;;20.60;83.20;;;;;;5028766;28;20187;-72
2021/05/28 10:10:43;;;;;;;6.80;3.97;;;20.60;82.60;;;;;;5024178;28;20531;-71
2021/05/28 10:13:11;;;;;;;4.65;3.45;;;20.70;81.60;;;;;;5024685;28;20254;-70
2021/05/28 10:15:47;;;;;;;4.38;3.70;;;20.80;83.40;;;;;;5021174;28;20212;-72
2021/05/28 10:18:14;;;;;;;5.97;4.65;;;20.80;83.70;;;;;;5006157;28;20184;-70
2021/05/28 10:20:42;;;;;;;7.00;4.75;;;20.90;82.20;;;;;;5023237;28;20207;-71
2021/05/28 10:23:10;;;;;;;6.43;5.40;;;20.80;82.30;;;;;;5005436;28;20208;-72
2021/05/28 10:25:37;;;;;;;9.75;5.43;;;20.80;82.60;;;;;;5031829;28;20180;-72
2021/05/28 10:28:06;;;;;;;7.00;3.90;;;20.80;82.80;;;;;;5009523;28;20295;-71
2021/05/28 10:30:39;;;;;;;5.75;3.58;;;;;;;;;;5025252;28;20200;-72
2021/05/28 10:33:41;;;;;;;4.45;3.25;;;;;;;;;;5005004;28;20262;-71
2021/05/28 10:36:08;;;;;;;4.55;3.50;;;;;;;;;;4932284;29;20190;-71
2021/05/28 10:38:38;;;;;;;5.35;3.45;;;21.10;85.10;;;;;;4950045;29;20199;-71
2021/05/28 10:41:07;;;;;;;4.95;3.13;;;23.40;72.70;;;;;;4964265;28;20314;-72
2021/05/28 10:43:56;;;;;;;6.18;3.35;;;23.80;71.90;;;;;;4947355;28;20291;-73
2021/05/28 10:46:22;;;;;;;4.18;3.30;;;24.30;70.80;;;;;;4951238;28;20563;-72
2021/05/28 10:48:47;;;;;;;4.43;3.03;;;24.60;64.70;;;;;;4948377;29;20195;-72
2021/05/28 10:51:22;;;;;;;5.28;3.08;;;24.80;65.00;;;;;;4948772;28;20226;-72
2021/05/28 10:53:50;;;;;;;6.60;3.10;;;24.90;64.20;;;;;;4949649;29;20261;-76
2021/05/28 10:56:18;;;;;;;3.85;2.78;;;24.90;64.20;;;;;;4948997;29;20231;-74
2021/05/28 10:58:53;;;;;;;4.10;2.90;;;24.80;63.60;;;;;;4948692;29;20191;-73
2021/05/28 11:01:47;;;;;;;4.22;2.90;;;24.50;62.70;;;;;;4946123;29;20218;-74
2021/05/28 11:04:22;;;;;;;4.43;3.30;;;24.20;63.40;;;;;;4948378;28;20221;-72
2021/05/28 11:09:36;;;;;;;8.52;3.40;;;23.70;62.00;;;;;;4960995;28;20203;-70
2021/05/28 11:12:03;;;;;;;3.80;3.17;;;23.50;62.20;;;;;;5021314;28;20205;-72
2021/05/28 11:14:29;;;;;;;4.82;3.17;;;23.40;63.80;;;;;;5027569;28;20191;-70
2021/05/28 11:16:57;;;;;;;5.90;3.08;;;23.30;63.90;;;;;;5021360;28;20271;-71
2021/05/28 11:19:30;;;;;;;3.75;2.78;;;23.30;62.00;;;;;;5021019;28;20252;-71
2021/05/28 11:21:58;;;;;;;3.50;2.90;;;23.30;62.60;;;;;;5019830;28;20200;-69
2021/05/28 11:24:53;;;;;;;3.17;2.50;;;23.50;62.10;;;;;;5018672;28;20203;-69
2021/05/28 11:27:24;;;;;;;5.22;2.97;;;23.60;61.80;;;;;;5001214;28;20196;-71
2021/05/28 11:30:16;;;;;;;4.60;2.60;;;23.70;61.90;;;;;;5020648;28;20191;-70
2021/05/28 11:32:45;;;;;;;4.57;2.65;;;23.70;59.50;;;;;;5023863;28;20287;-71
2021/05/28 11:35:24;;;;;;;3.42;2.25;;;23.70;59.40;;;;;;5024011;28;20243;-71
2021/05/28 11:38:04;;;;;;;4.20;2.90;;;23.90;59.30;;;;;;5016611;28;20192;-70
2021/05/28 11:40:37;;;;;;;2.72;2.53;;;24.00;60.20;;;;;;5019712;28;20213;-70
2021/05/28 11:43:11;;;;;;;4.88;2.20;;;24.10;59.90;;;;;;5024389;28;20235;-71
2021/05/28 11:45:40;;;;;;;3.15;1.80;;;24.10;56.80;;;;;;5023760;28;20216;-70
2021/05/28 11:48:12;;;;;;;2.67;1.80;;;24.10;56.20;;;;;;5014358;28;20180;-71
2021/05/28 11:50:41;;;;;;;3.47;3.00;;;24.10;54.20;;;;;;5001901;28;20258;-71
2021/05/28 11:53:11;;;;;;;5.35;4.03;;;24.00;55.40;;;;;;5024477;28;20688;-71
2021/05/28 11:55:51;;;;;;;3.30;2.63;;;23.80;55.60;;;;;;5024595;28;20200;-71
2021/05/28 11:58:19;;;;;;;7.20;4.38;;;23.60;56.60;;;;;;5022963;28;20208;-71
2021/05/28 12:00:46;;;;;;;5.78;3.42;;;;;;;;;;5022311;28;20204;-70
2021/05/28 12:03:12;;;;;;;4.72;2.40;;;;;;;;;;5021093;28;20270;-71
2021/05/28 12:05:39;;;;;;;2.65;2.38;;;;;;;;;;5008684;28;20225;-72
2021/05/28 12:08:11;;;;;;;10.75;5.10;;;23.60;57.40;;;;;;5004331;28;20230;-70
2021/05/28 12:10:52;;;;;;;3.30;2.70;;;25.00;55.00;;;;;;5001173;28;20310;-71
2021/05/28 12:13:25;;;;;;;3.60;2.78;;;24.80;54.10;;;;;;5019432;28;20180;-71
2021/05/28 12:15:52;;;;;;;4.78;2.20;;;;;;;;;;5023744;28;20266;-71
2021/05/28 12:18:23;;;;;;;8.00;5.80;;;;;;;;;;5023130;28;20220;-71
2021/05/28 12:20:56;;;;;;;2.63;2.20;;;;;;;;;;5021620;28;20653;-71
2021/05/28 12:23:22;;;;;;;4.97;4.07;;;;;;;;;;5020863;28;21281;-71
2021/05/28 12:25:51;;;;;;;2.60;2.08;;;;;;;;;;5020376;28;20642;-71
2021/05/28 12:28:27;;;;;;;4.20;2.13;;;;;;;;;;5003062;28;20192;-71
2021/05/28 12:31:17;;;;;;;2.78;2.20;;;24.40;54.50;;;;;;5019822;28;20184;-71
2021/05/28 12:33:46;;;;;;;3.78;2.25;;;23.60;54.90;;;;;;5020712;28;20608;-71
2021/05/28 12:36:14;;;;;;;6.43;3.05;;;24.00;56.00;;;;;;5011610;28;20651;-71
2021/05/28 12:38:40;;;;;;;4.13;2.97;;;;;;;;;;5025774;28;20191;-71
2021/05/28 12:41:08;;;;;;;4.15;2.80;;;;;;;;;;5019148;28;21774;-71
2021/05/28 12:43:34;;;;;;;3.00;2.40;;;;;;;;;;5012471;28;20195;-69
2021/05/28 12:46:00;;;;;;;3.65;2.72;;;24.30;54.40;;;;;;5016830;28;20594;-72
2021/05/28 12:48:55;;;;;;;3.70;2.58;;;24.60;51.50;;;;;;5024870;28;20644;-72
2021/05/28 12:51:30;;;;;;;2.40;2.03;;;24.20;50.90;;;;;;5007428;28;20273;-69
2021/05/28 12:53:57;;;;;;;3.22;2.10;;;24.10;50.30;;;;;;5008019;28;20212;-72
2021/05/28 12:56:24;;;;;;;3.92;2.05;;;24.10;49.70;;;;;;5020976;28;20278;-72
2021/05/28 12:58:52;;;;;;;2.65;1.65;;;24.10;48.60;;;;;;5017307;28;20188;-69